Liguria — IRKJ — position and weather

sailwx.info

Track history (hours):
 
Tides and Currents Weather Stations Pressure Air Temp Water Temp Dewpoint Dewpoint Depression Visibility Wind Speed Wind Dir Waves Ship Positions

Liguria

Last reported at 2015-Mar-02 09:15 UTC. Time now 2015-Mar-02 15:02 UTC.
Position N 44°18' E 008°29'.

Length 30 m.

Type: Tug. MMSI: 247228500.

Date/timePositionNaut miles runAvg speedWind from/ knotsBaromVisibWave heightAir tempDewpointWater temp
2015-Mar-02 09:15N 44°18' E 008°29'0 0.0
2015-Mar-02 08:18N 44°18' E 008°29'0 0.0
2015-Mar-02 07:15N 44°18' E 008°29'0 0.0
2015-Mar-02 06:24N 44°18' E 008°29'1 0.7
2015-Mar-02 05:21N 44°19' E 008°30'1 0.0
2015-Mar-01 07:32N 44°18' E 008°29'0 0.0
2015-Mar-01 05:17N 44°18' E 008°29'0 0.0
2015-Mar-01 04:17N 44°18' E 008°29'0 0.0
2015-Mar-01 03:32N 44°18' E 008°29'0 0.0
2015-Mar-01 02:32N 44°18' E 008°29'0 0.0
2015-Mar-01 01:32N 44°18' E 008°29'0 0.0
2015-Mar-01 00:08N 44°18' E 008°29'0 0.0
2015-Feb-28 23:29N 44°18' E 008°29'0 0.0
2015-Feb-28 14:10N 44°18' E 008°29'0 0.0
2015-Feb-28 13:28N 44°18' E 008°29'0 0.0
2015-Feb-28 12:28N 44°18' E 008°29'0 0.0
2015-Feb-28 11:28N 44°18' E 008°29'0 0.0
2015-Feb-28 10:31N 44°18' E 008°29'0 0.0
2015-Feb-28 09:31N 44°18' E 008°29'3 3.1
2015-Feb-28 08:31N 44°16' E 008°27'3 3.6
2015-Feb-28 07:33N 44°19' E 008°30'0 0.3
2015-Feb-28 06:33N 44°18' E 008°29'0 0.0
2015-Feb-28 05:33N 44°18' E 008°29'0 0.0
2015-Feb-28 04:33N 44°18' E 008°29'0 0.0
2015-Feb-27 18:34N 44°19' E 008°30'0 0.4
2015-Feb-27 17:28N 44°18' E 008°29'0 0.0
2015-Feb-27 08:33N 44°18' E 008°29'0 0.0
2015-Feb-27 07:33N 44°18' E 008°29'0 0.0
2015-Feb-27 06:33N 44°18' E 008°29'0 0.0
2015-Feb-27 05:33N 44°18' E 008°29'1 0.9
2015-Feb-27 04:33N 44°19' E 008°30'0 0.1
2015-Feb-27 03:33N 44°19' E 008°30'3 2.8
2015-Feb-27 02:31N 44°17' E 008°28'2 2.3
2015-Feb-27 01:33N 44°19' E 008°29'0 0.1
2015-Feb-27 00:31N 44°18' E 008°29'0 0.0
2015-Feb-26 23:28N 44°18' E 008°29'0 0.0
2015-Feb-26 22:28N 44°18' E 008°29'0 0.0
2015-Feb-26 21:16N 44°18' E 008°29'0 0.0
2015-Feb-26 20:28N 44°18' E 008°29'0 0.0
2015-Feb-26 19:28N 44°18' E 008°29'0 0.0
2015-Feb-26 18:28N 44°18' E 008°29'0 0.0
2015-Feb-26 17:28N 44°18' E 008°29'0 0.0
2015-Feb-26 16:28N 44°18' E 008°29'0 0.0
2015-Feb-26 15:33N 44°19' E 008°29'0 0.3
2015-Feb-26 14:34N 44°19' E 008°30'0 0.3
2015-Feb-26 13:30N 44°18' E 008°29'0 0.0
2015-Feb-26 12:30N 44°18' E 008°29'0 0.0
2015-Feb-26 11:33N 44°18' E 008°29'0 0.0
2015-Feb-26 10:30N 44°18' E 008°29'0 0.5
2015-Feb-26 09:33N 44°18' E 008°30'2 2.2
2015-Feb-26 08:33N 44°17' E 008°28'1 0.5
2015-Feb-26 07:33N 44°16' E 008°28'3 2.7
2015-Feb-26 06:33N 44°19' E 008°29'0 0.1
2015-Feb-26 05:30N 44°18' E 008°29'0 0.0
2015-Feb-25 18:31N 44°18' E 008°29'0 0.0
2015-Feb-25 17:31N 44°18' E 008°29'0 0.0
2015-Feb-25 16:31N 44°18' E 008°29'0 0.0
2015-Feb-25 15:31N 44°18' E 008°29'0 0.0
2015-Feb-25 14:28N 44°18' E 008°29'0 0.0
2015-Feb-25 13:31N 44°18' E 008°29'0 0.0
2015-Feb-25 12:25N 44°18' E 008°29'0 0.0
2015-Feb-25 11:31N 44°18' E 008°29'0 0.0
2015-Feb-25 10:25N 44°18' E 008°29'0 0.0
2015-Feb-25 09:31N 44°18' E 008°29'0 0.0
2015-Feb-25 08:31N 44°18' E 008°29'0 0.0
2015-Feb-25 07:31N 44°18' E 008°29'0 0.0
2015-Feb-25 06:31N 44°18' E 008°29'0 0.0
2015-Feb-25 05:31N 44°18' E 008°29'0 0.0
2015-Feb-25 02:32N 44°18' E 008°29'0 0.0
2015-Feb-24 22:29N 44°18' E 008°29'0 0.0
2015-Feb-24 21:29N 44°18' E 008°29'0 0.0
2015-Feb-24 20:23N 44°18' E 008°29'0 0.0
2015-Feb-24 19:32N 44°18' E 008°29'0 0.0
2015-Feb-24 18:23N 44°18' E 008°29'0 0.0
2015-Feb-24 17:29N 44°18' E 008°29'0 0.0
2015-Feb-24 16:29N 44°18' E 008°29'0 0.0
2015-Feb-24 15:29N 44°18' E 008°29'0 0.0
2015-Feb-24 14:32N 44°18' E 008°29'0 0.0
2015-Feb-24 13:29N 44°18' E 008°29'0 0.0
2015-Feb-24 12:29N 44°18' E 008°29'0 0.0
2015-Feb-24 09:32N 44°18' E 008°29'0 0.0
2015-Feb-24 08:32N 44°18' E 008°29'0 0.0
2015-Feb-24 07:26N 44°18' E 008°29'0 0.0
2015-Feb-24 06:32N 44°18' E 008°29'0 0.0
2015-Feb-24 05:32N 44°18' E 008°29'1 0.6
2015-Feb-24 04:33N 44°19' E 008°30'1 0.6
2015-Feb-24 03:32N 44°18' E 008°29'0 0.0
2015-Feb-24 02:32N 44°18' E 008°29'0 0.0
2015-Feb-24 01:32N 44°18' E 008°29'0 0.0
2015-Feb-24 00:32N 44°18' E 008°29'0 0.0
2015-Feb-23 23:32N 44°18' E 008°29'0 0.0
2015-Feb-23 18:31N 44°18' E 008°29'0 0.0
2015-Feb-23 17:31N 44°18' E 008°29'0 0.0
2015-Feb-23 16:31N 44°18' E 008°29'0 0.0
2015-Feb-23 15:31N 44°18' E 008°29'0 0.0
2015-Feb-23 14:31N 44°18' E 008°29'0 0.0
2015-Feb-23 13:31N 44°18' E 008°29'0 0.0
2015-Feb-23 12:31N 44°18' E 008°29'0 0.0
2015-Feb-23 11:31N 44°18' E 008°29'0 0.0
2015-Feb-23 10:31N 44°18' E 008°29'0 0.0
2015-Feb-23 09:31N 44°18' E 008°29'0 0.0
2015-Feb-23 08:25N 44°18' E 008°29'0 0.0
2015-Feb-23 07:31N 44°18' E 008°29'0 0.0
2015-Feb-23 06:31N 44°18' E 008°29'0 0.4
2015-Feb-23 05:29N 44°19' E 008°30'0 0.4
2015-Feb-23 04:31N 44°18' E 008°29'0 0.0
2015-Feb-22 13:03N 44°18' E 008°29'0 0.0
2015-Feb-22 12:33N 44°18' E 008°29'0 0.0
2015-Feb-22 11:33N 44°18' E 008°29'0 0.0
2015-Feb-22 10:33N 44°18' E 008°29'0 0.0
2015-Feb-22 09:33N 44°18' E 008°29'0 0.0
2015-Feb-22 08:27N 44°18' E 008°29'0 0.0
2015-Feb-22 07:33N 44°18' E 008°29'0 0.0
2015-Feb-22 06:33N 44°18' E 008°29'0 0.0
2015-Feb-22 05:33N 44°18' E 008°29'0 0.0
2015-Feb-22 04:33N 44°18' E 008°29'0 0.0
2015-Feb-22 03:33N 44°18' E 008°29'0 0.0
2015-Feb-21 13:29N 44°18' E 008°29'0 0.0
2015-Feb-21 12:29N 44°18' E 008°29'0 0.0
2015-Feb-21 11:32N 44°18' E 008°29'0 0.0
2015-Feb-21 10:29N 44°18' E 008°29'0 0.0
2015-Feb-21 09:29N 44°18' E 008°29'0 0.0
2015-Feb-21 08:29N 44°18' E 008°29'0 0.0
2015-Feb-21 07:32N 44°18' E 008°29'0 0.0
2015-Feb-21 06:29N 44°18' E 008°29'0 0.0
2015-Feb-21 05:29N 44°18' E 008°29'0 0.0
2015-Feb-21 04:29N 44°18' E 008°29'0 0.0
2015-Feb-21 03:29N 44°18' E 008°29'0 0.0
2015-Feb-20 12:28N 44°18' E 008°29'0 0.0
2015-Feb-20 11:28N 44°18' E 008°29'0 0.0
2015-Feb-20 10:33N 44°18' E 008°29'0 0.0
2015-Feb-20 09:33N 44°18' E 008°29'  
Track history (hours):
 
Tides and Currents Weather Stations Pressure Air Temp Water Temp Dewpoint Dewpoint Depression Visibility Wind Speed Wind Dir Waves Ship Positions

Liguria

Last reported at 2015-Mar-02 09:15 UTC. Time now 2015-Mar-02 15:02 UTC.
Position N 44°18' E 008°29'.

Length 30 m.

Type: Tug. MMSI: 247228500.

Date/timePositionNaut miles runAvg speedWind from/ knotsBaromVisibWave heightAir tempDewpointWater temp
2015-Mar-02 09:15N 44°18' E 008°29'0 0.0
2015-Mar-02 08:18N 44°18' E 008°29'0 0.0
2015-Mar-02 07:15N 44°18' E 008°29'0 0.0
2015-Mar-02 06:24N 44°18' E 008°29'1 0.7
2015-Mar-02 05:21N 44°19' E 008°30'1 0.0
2015-Mar-01 07:32N 44°18' E 008°29'0 0.0
2015-Mar-01 05:17N 44°18' E 008°29'0 0.0
2015-Mar-01 04:17N 44°18' E 008°29'0 0.0
2015-Mar-01 03:32N 44°18' E 008°29'0 0.0
2015-Mar-01 02:32N 44°18' E 008°29'0 0.0
2015-Mar-01 01:32N 44°18' E 008°29'0 0.0
2015-Mar-01 00:08N 44°18' E 008°29'0 0.0
2015-Feb-28 23:29N 44°18' E 008°29'0 0.0
2015-Feb-28 14:10N 44°18' E 008°29'0 0.0
2015-Feb-28 13:28N 44°18' E 008°29'0 0.0
2015-Feb-28 12:28N 44°18' E 008°29'0 0.0
2015-Feb-28 11:28N 44°18' E 008°29'0 0.0
2015-Feb-28 10:31N 44°18' E 008°29'0 0.0
2015-Feb-28 09:31N 44°18' E 008°29'3 3.1
2015-Feb-28 08:31N 44°16' E 008°27'3 3.6
2015-Feb-28 07:33N 44°19' E 008°30'0 0.3
2015-Feb-28 06:33N 44°18' E 008°29'0 0.0
2015-Feb-28 05:33N 44°18' E 008°29'0 0.0
2015-Feb-28 04:33N 44°18' E 008°29'0 0.0
2015-Feb-27 18:34N 44°19' E 008°30'0 0.4
2015-Feb-27 17:28N 44°18' E 008°29'0 0.0
2015-Feb-27 08:33N 44°18' E 008°29'0 0.0
2015-Feb-27 07:33N 44°18' E 008°29'0 0.0
2015-Feb-27 06:33N 44°18' E 008°29'0 0.0
2015-Feb-27 05:33N 44°18' E 008°29'1 0.9
2015-Feb-27 04:33N 44°19' E 008°30'0 0.1
2015-Feb-27 03:33N 44°19' E 008°30'3 2.8
2015-Feb-27 02:31N 44°17' E 008°28'2 2.3
2015-Feb-27 01:33N 44°19' E 008°29'0 0.1
2015-Feb-27 00:31N 44°18' E 008°29'0 0.0
2015-Feb-26 23:28N 44°18' E 008°29'0 0.0
2015-Feb-26 22:28N 44°18' E 008°29'0 0.0
2015-Feb-26 21:16N 44°18' E 008°29'0 0.0
2015-Feb-26 20:28N 44°18' E 008°29'0 0.0
2015-Feb-26 19:28N 44°18' E 008°29'0 0.0
2015-Feb-26 18:28N 44°18' E 008°29'0 0.0
2015-Feb-26 17:28N 44°18' E 008°29'0 0.0
2015-Feb-26 16:28N 44°18' E 008°29'0 0.0
2015-Feb-26 15:33N 44°19' E 008°29'0 0.3
2015-Feb-26 14:34N 44°19' E 008°30'0 0.3
2015-Feb-26 13:30N 44°18' E 008°29'0 0.0
2015-Feb-26 12:30N 44°18' E 008°29'0 0.0
2015-Feb-26 11:33N 44°18' E 008°29'0 0.0
2015-Feb-26 10:30N 44°18' E 008°29'0 0.5
2015-Feb-26 09:33N 44°18' E 008°30'2 2.2
2015-Feb-26 08:33N 44°17' E 008°28'1 0.5
2015-Feb-26 07:33N 44°16' E 008°28'3 2.7
2015-Feb-26 06:33N 44°19' E 008°29'0 0.1
2015-Feb-26 05:30N 44°18' E 008°29'0 0.0
2015-Feb-25 18:31N 44°18' E 008°29'0 0.0
2015-Feb-25 17:31N 44°18' E 008°29'0 0.0
2015-Feb-25 16:31N 44°18' E 008°29'0 0.0
2015-Feb-25 15:31N 44°18' E 008°29'0 0.0
2015-Feb-25 14:28N 44°18' E 008°29'0 0.0
2015-Feb-25 13:31N 44°18' E 008°29'0 0.0
2015-Feb-25 12:25N 44°18' E 008°29'0 0.0
2015-Feb-25 11:31N 44°18' E 008°29'0 0.0
2015-Feb-25 10:25N 44°18' E 008°29'0 0.0
2015-Feb-25 09:31N 44°18' E 008°29'0 0.0
2015-Feb-25 08:31N 44°18' E 008°29'0 0.0
2015-Feb-25 07:31N 44°18' E 008°29'0 0.0
2015-Feb-25 06:31N 44°18' E 008°29'0 0.0
2015-Feb-25 05:31N 44°18' E 008°29'0 0.0
2015-Feb-25 02:32N 44°18' E 008°29'0 0.0
2015-Feb-24 22:29N 44°18' E 008°29'0 0.0
2015-Feb-24 21:29N 44°18' E 008°29'0 0.0
2015-Feb-24 20:23N 44°18' E 008°29'0 0.0
2015-Feb-24 19:32N 44°18' E 008°29'0 0.0
2015-Feb-24 18:23N 44°18' E 008°29'0 0.0
2015-Feb-24 17:29N 44°18' E 008°29'0 0.0
2015-Feb-24 16:29N 44°18' E 008°29'0 0.0
2015-Feb-24 15:29N 44°18' E 008°29'0 0.0
2015-Feb-24 14:32N 44°18' E 008°29'0 0.0
2015-Feb-24 13:29N 44°18' E 008°29'0 0.0
2015-Feb-24 12:29N 44°18' E 008°29'0 0.0
2015-Feb-24 09:32N 44°18' E 008°29'0 0.0
2015-Feb-24 08:32N 44°18' E 008°29'0 0.0
2015-Feb-24 07:26N 44°18' E 008°29'0 0.0
2015-Feb-24 06:32N 44°18' E 008°29'0 0.0
2015-Feb-24 05:32N 44°18' E 008°29'1 0.6
2015-Feb-24 04:33N 44°19' E 008°30'1 0.6
2015-Feb-24 03:32N 44°18' E 008°29'0 0.0
2015-Feb-24 02:32N 44°18' E 008°29'0 0.0
2015-Feb-24 01:32N 44°18' E 008°29'0 0.0
2015-Feb-24 00:32N 44°18' E 008°29'0 0.0
2015-Feb-23 23:32N 44°18' E 008°29'0 0.0
2015-Feb-23 18:31N 44°18' E 008°29'0 0.0
2015-Feb-23 17:31N 44°18' E 008°29'0 0.0
2015-Feb-23 16:31N 44°18' E 008°29'0 0.0
2015-Feb-23 15:31N 44°18' E 008°29'0 0.0
2015-Feb-23 14:31N 44°18' E 008°29'0 0.0
2015-Feb-23 13:31N 44°18' E 008°29'0 0.0
2015-Feb-23 12:31N 44°18' E 008°29'0 0.0
2015-Feb-23 11:31N 44°18' E 008°29'0 0.0
2015-Feb-23 10:31N 44°18' E 008°29'0 0.0
2015-Feb-23 09:31N 44°18' E 008°29'0 0.0
2015-Feb-23 08:25N 44°18' E 008°29'0 0.0
2015-Feb-23 07:31N 44°18' E 008°29'0 0.0
2015-Feb-23 06:31N 44°18' E 008°29'0 0.4
2015-Feb-23 05:29N 44°19' E 008°30'0 0.4
2015-Feb-23 04:31N 44°18' E 008°29'0 0.0
2015-Feb-22 13:03N 44°18' E 008°29'0 0.0
2015-Feb-22 12:33N 44°18' E 008°29'0 0.0
2015-Feb-22 11:33N 44°18' E 008°29'0 0.0
2015-Feb-22 10:33N 44°18' E 008°29'0 0.0
2015-Feb-22 09:33N 44°18' E 008°29'0 0.0
2015-Feb-22 08:27N 44°18' E 008°29'0 0.0
2015-Feb-22 07:33N 44°18' E 008°29'0 0.0
2015-Feb-22 06:33N 44°18' E 008°29'0 0.0
2015-Feb-22 05:33N 44°18' E 008°29'0 0.0
2015-Feb-22 04:33N 44°18' E 008°29'0 0.0
2015-Feb-22 03:33N 44°18' E 008°29'0 0.0
2015-Feb-21 13:29N 44°18' E 008°29'0 0.0
2015-Feb-21 12:29N 44°18' E 008°29'0 0.0
2015-Feb-21 11:32N 44°18' E 008°29'0 0.0
2015-Feb-21 10:29N 44°18' E 008°29'0 0.0
2015-Feb-21 09:29N 44°18' E 008°29'0 0.0
2015-Feb-21 08:29N 44°18' E 008°29'0 0.0
2015-Feb-21 07:32N 44°18' E 008°29'0 0.0
2015-Feb-21 06:29N 44°18' E 008°29'0 0.0
2015-Feb-21 05:29N 44°18' E 008°29'0 0.0
2015-Feb-21 04:29N 44°18' E 008°29'0 0.0
2015-Feb-21 03:29N 44°18' E 008°29'0 0.0
2015-Feb-20 12:28N 44°18' E 008°29'0 0.0
2015-Feb-20 11:28N 44°18' E 008°29'0 0.0
2015-Feb-20 10:33N 44°18' E 008°29'0 0.0
2015-Feb-20 09:33N 44°18' E 008°29'  

Dump ship's entire track history